Time;durP1;ratioP1;P1;durP2;ratioP2;P2;SDS_P1;SDS_P2;PMS_P1;PMS_P2;Temp;Humidity;BMP_temperature;BMP_pressure;BME280_temperature;BME280_humidity;BME280_pressure;Samples;Min_cycle;Max_cycle;Signal;HPM_P1;HPM_P2
2021/01/25 00:00:17;;;;;;;;;;;-0.90;99.90;;;;;;4975139;28;19906;-84
2021/01/25 00:02:42;;;;;;;;;;;-0.90;99.90;;;;;;4974889;28;19922;-83
2021/01/25 00:05:08;;;;;;;;;;;-0.90;99.90;;;;;;4973685;28;20000;-83
2021/01/25 00:07:34;;;;;;;;;;;-0.90;99.90;;;;;;4971951;28;20360;-83
2021/01/25 00:10:00;;;;;;;;;;;-0.90;99.90;;;;;;4956013;28;20004;-83
2021/01/25 00:12:26;;;;;;;;;;;-0.90;99.90;;;;;;4955838;29;19917;-83
2021/01/25 00:14:52;;;;;;;;;;;-0.90;99.90;;;;;;4954609;28;19906;-83
2021/01/25 00:17:17;;;;;;;;;;;-0.80;99.90;;;;;;4955738;28;20391;-83
2021/01/25 00:19:43;;;;;;;;;;;-0.80;99.90;;;;;;4954265;28;20006;-84
2021/01/25 00:22:08;;;;;;;;;;;-0.90;99.90;;;;;;4955632;28;20376;-84
2021/01/25 00:24:34;;;;;;;;;;;-0.90;99.90;;;;;;4955099;28;19914;-83
2021/01/25 00:27:00;;;;;;;;;;;-0.90;99.90;;;;;;4955708;28;19918;-83
2021/01/25 00:29:25;;;;;;;;;;;-0.90;99.90;;;;;;4970471;28;19910;-83
2021/01/25 00:31:51;;;;;;;;;;;-0.90;99.90;;;;;;4955543;28;19954;-83
2021/01/25 00:34:16;;;;;;;;;;;-0.90;99.90;;;;;;4955587;29;20246;-83
2021/01/25 00:36:42;;;;;;;;;;;-0.90;99.90;;;;;;4954399;29;19911;-83
2021/01/25 00:39:07;;;;;;;;;;;-0.90;99.90;;;;;;4954067;28;20410;-83
2021/01/25 00:41:33;;;;;;;;;;;-0.90;99.90;;;;;;4954026;29;19914;-83
2021/01/25 00:43:58;;;;;;;;;;;-0.90;99.90;;;;;;4954270;28;19953;-83
2021/01/25 00:46:24;;;;;;;;;;;-0.90;99.90;;;;;;4954002;29;19913;-83
2021/01/25 00:48:50;;;;;;;;;;;-0.90;99.90;;;;;;4954003;29;19918;-83
2021/01/25 00:51:15;;;;;;;;;;;-0.90;99.90;;;;;;4954353;29;19915;-83
2021/01/25 00:53:41;;;;;;;;;;;-0.90;99.90;;;;;;4964628;28;19913;-83
2021/01/25 00:56:06;;;;;;;;;;;-0.90;99.90;;;;;;4974616;28;19921;-82
2021/01/25 00:58:32;;;;;;;;;;;-0.90;99.90;;;;;;4989515;28;19914;-83
2021/01/25 01:00:58;;;;;;;;;;;-0.80;99.90;;;;;;4973253;28;19906;-83
2021/01/25 01:03:23;;;;;;;;;;;-0.80;99.90;;;;;;4972846;28;19918;-83
2021/01/25 01:05:49;;;;;;;;;;;-0.80;99.90;;;;;;4974507;28;19997;-83
2021/01/25 01:08:15;;;;;;;;;;;-0.80;99.90;;;;;;4973296;28;19910;-83
2021/01/25 01:10:41;;;;;;;;;;;-0.80;99.90;;;;;;4974275;28;20375;-83
2021/01/25 01:13:07;;;;;;;;;;;-0.90;99.90;;;;;;4974640;28;19910;-83
2021/01/25 01:15:32;;;;;;;;;;;-0.90;99.90;;;;;;4989370;28;19906;-83
2021/01/25 01:17:58;;;;;;;;;;;-0.90;99.90;;;;;;4973048;28;19945;-83
2021/01/25 01:20:23;;;;;;;;;;;-0.90;99.90;;;;;;4976615;28;19961;-83
2021/01/25 01:22:49;;;;;;;;;;;-0.90;99.90;;;;;;4975243;28;19976;-84
2021/01/25 01:25:15;;;;;;;;;;;-0.90;99.90;;;;;;4957533;28;19906;-83
2021/01/25 01:27:40;;;;;;;;;;;-0.90;99.90;;;;;;4957756;29;19917;-83
2021/01/25 01:30:06;;;;;;;;;;;-0.90;99.90;;;;;;4973503;28;19910;-82
2021/01/25 01:32:32;;;;;;;;;;;-0.90;99.90;;;;;;4958683;28;19906;-82
2021/01/25 01:34:58;;;;;;;;;;;-0.90;99.90;;;;;;4957661;29;19914;-82
2021/01/25 01:37:23;;;;;;;;;;;-1.00;99.90;;;;;;4957497;29;19913;-83
2021/01/25 01:39:49;;;;;;;;;;;-0.90;99.90;;;;;;4958827;28;19954;-83
2021/01/25 01:42:15;;;;;;;;;;;-1.00;99.90;;;;;;4958788;28;20316;-83
2021/01/25 01:44:41;;;;;;;;;;;-1.00;99.90;;;;;;4957415;28;19918;-83
2021/01/25 01:47:07;;;;;;;;;;;-1.00;99.90;;;;;;4957852;29;20294;-83
2021/01/25 01:52:36;;;;;;;;;;;-1.10;99.90;;;;;;4970412;28;19956;-84
2021/01/25 01:55:02;;;;;;;;;;;-1.10;99.90;;;;;;4977609;28;20360;-83
2021/01/25 01:57:28;;;;;;;;;;;-1.10;99.90;;;;;;4976188;28;20359;-83
2021/01/25 01:59:54;;;;;;;;;;;-1.10;99.90;;;;;;4976391;28;19906;-83
2021/01/25 02:02:20;;;;;;;;;;;-1.10;99.90;;;;;;4970972;28;19917;-83
2021/01/25 02:16:58;;;;;;;;;;;-1.10;99.90;;;;;;4977322;28;19965;-83
2021/01/25 02:19:36;;;;;;;;;;;-1.20;99.90;;;;;;4975853;28;19910;-83
2021/01/25 02:22:14;;;;;;;;;;;-1.10;99.90;;;;;;4992072;28;19906;-83
2021/01/25 02:24:42;;;;;;;;;;;-1.10;99.90;;;;;;4980664;28;19925;-83
2021/01/25 02:27:28;;;;;;;;;;;-1.20;99.90;;;;;;4975756;28;19914;-83
2021/01/25 02:29:54;;;;;;;;;;;-1.20;99.90;;;;;;4976299;28;20004;-83
2021/01/25 02:32:20;;;;;;;;;;;-1.20;99.90;;;;;;4975563;28;19988;-83
2021/01/25 02:34:46;;;;;;;;;;;-1.20;99.90;;;;;;4974884;28;19960;-84
2021/01/25 02:37:11;;;;;;;;;;;-1.10;99.90;;;;;;4974775;28;19906;-83
2021/01/25 02:39:38;;;;;;;;;;;-1.20;99.90;;;;;;4978914;28;19980;-83
2021/01/25 02:42:04;;;;;;;;;;;-1.20;99.90;;;;;;5011605;28;20375;-84
2021/01/25 02:44:30;;;;;;;;;;;-1.20;99.90;;;;;;4994892;28;19917;-83
2021/01/25 02:46:57;;;;;;;;;;;-1.20;99.90;;;;;;4986235;28;19910;-83
2021/01/25 02:49:23;;;;;;;;;;;-1.20;99.90;;;;;;4975068;28;20267;-84
2021/01/25 02:51:48;;;;;;;;;;;-1.20;99.90;;;;;;4975498;28;19906;-84
2021/01/25 02:54:14;;;;;;;;;;;-1.20;99.90;;;;;;4991594;28;20307;-84
2021/01/25 02:56:39;;;;;;;;;;;-1.30;99.90;;;;;;4971547;28;19910;-83
2021/01/25 02:59:05;;;;;;;;;;;-1.30;99.90;;;;;;4956144;29;19907;-84
2021/01/25 03:01:31;;;;;;;;;;;-1.20;99.90;;;;;;4955624;29;19929;-84
2021/01/25 03:03:57;;;;;;;;;;;-1.30;99.90;;;;;;4957072;28;20380;-84
2021/01/25 03:06:23;;;;;;;;;;;-1.30;99.90;;;;;;4956689;29;19906;-84
2021/01/25 03:08:49;;;;;;;;;;;-1.30;99.90;;;;;;4955802;29;19950;-84
2021/01/25 03:11:18;;;;;;;;;;;-1.30;99.90;;;;;;4958384;28;19980;-84
2021/01/25 03:13:43;;;;;;;;;;;-1.30;99.90;;;;;;4975973;28;20410;-84
2021/01/25 03:16:13;;;;;;;;;;;-1.30;99.90;;;;;;4975868;28;19906;-84
2021/01/25 03:18:39;;;;;;;;;;;-1.30;99.90;;;;;;4975582;28;19906;-84
2021/01/25 03:21:04;;;;;;;;;;;-1.30;99.90;;;;;;4975766;28;20423;-84
2021/01/25 03:23:30;;;;;;;;;;;-1.30;99.90;;;;;;4974212;28;19914;-84
2021/01/25 03:25:56;;;;;;;;;;;-1.30;99.90;;;;;;4975838;28;20423;-84
2021/01/25 03:28:21;;;;;;;;;;;-1.40;99.90;;;;;;4975804;28;19914;-84
2021/01/25 03:30:47;;;;;;;;;;;-1.40;99.90;;;;;;4975792;28;20394;-83
2021/01/25 03:33:12;;;;;;;;;;;-1.40;99.90;;;;;;4957368;28;19921;-83
2021/01/25 03:35:38;;;;;;;;;;;-1.40;99.90;;;;;;4956724;28;20280;-83
2021/01/25 03:38:04;;;;;;;;;;;-1.40;99.90;;;;;;4959186;28;20364;-83
2021/01/25 03:40:29;;;;;;;;;;;-1.40;99.90;;;;;;4974561;28;20397;-83
2021/01/25 03:42:55;;;;;;;;;;;-1.40;99.90;;;;;;4973404;28;19921;-82
2021/01/25 03:45:20;;;;;;;;;;;-1.40;99.90;;;;;;4990516;28;19929;-83
2021/01/25 03:47:47;;;;;;;;;;;-1.40;99.90;;;;;;4972810;28;19973;-83
2021/01/25 03:50:13;;;;;;;;;;;-1.50;99.90;;;;;;4974536;28;20009;-83
2021/01/25 03:52:39;;;;;;;;;;;-1.50;99.90;;;;;;4975442;28;19952;-83
2021/01/25 03:55:05;;;;;;;;;;;-1.50;99.90;;;;;;4975425;28;20319;-83
2021/01/25 03:57:30;;;;;;;;;;;-1.60;99.90;;;;;;4975093;28;19914;-83
2021/01/25 03:59:56;;;;;;;;;;;-1.60;99.90;;;;;;4955673;28;19945;-83
2021/01/25 04:02:21;;;;;;;;;;;-1.60;99.90;;;;;;4955111;29;20343;-83
2021/01/25 04:04:47;;;;;;;;;;;-1.60;99.90;;;;;;4955890;28;19924;-83
2021/01/25 04:07:13;;;;;;;;;;;-1.60;99.90;;;;;;4954680;28;19906;-83
2021/01/25 04:09:39;;;;;;;;;;;-1.60;99.90;;;;;;4954250;29;19907;-83
2021/01/25 04:12:04;;;;;;;;;;;-1.60;99.90;;;;;;4954565;28;19910;-82
2021/01/25 04:14:30;;;;;;;;;;;-1.60;99.90;;;;;;4955589;28;19907;-82
2021/01/25 04:16:55;;;;;;;;;;;-1.60;99.90;;;;;;4955756;29;19907;-83
2021/01/25 04:19:21;;;;;;;;;;;-1.60;99.90;;;;;;4953844;29;19916;-83
2021/01/25 04:21:46;;;;;;;;;;;-1.60;99.90;;;;;;4954684;28;19911;-83
2021/01/25 04:24:12;;;;;;;;;;;-1.60;99.90;;;;;;4968894;28;20371;-83
2021/01/25 04:26:41;;;;;;;;;;;-1.60;99.90;;;;;;4965607;28;19911;-83
2021/01/25 04:29:13;;;;;;;;;;;-1.60;99.90;;;;;;4954502;28;19906;-84
2021/01/25 04:31:39;;;;;;;;;;;-1.60;99.90;;;;;;4954475;29;19973;-83
2021/01/25 04:34:04;;;;;;;;;;;-1.60;99.90;;;;;;4955309;28;19912;-83
2021/01/25 04:36:30;;;;;;;;;;;-1.60;99.90;;;;;;4977718;28;19905;-82
2021/01/25 04:38:56;;;;;;;;;;;-1.50;99.90;;;;;;4994213;28;20360;-82
2021/01/25 04:41:22;;;;;;;;;;;-1.50;99.90;;;;;;4992822;28;20027;-82
2021/01/25 04:43:47;;;;;;;;;;;-1.50;99.90;;;;;;4993948;28;19953;-82
2021/01/25 04:46:13;;;;;;;;;;;-1.50;99.90;;;;;;4992742;28;19953;-82
2021/01/25 04:48:40;;;;;;;;;;;-1.50;99.90;;;;;;4975153;28;20384;-82
2021/01/25 04:51:06;;;;;;;;;;;-1.50;99.90;;;;;;4973388;28;19917;-82
2021/01/25 04:53:31;;;;;;;;;;;-1.50;99.90;;;;;;4989105;28;19906;-83
2021/01/25 04:55:58;;;;;;;;;;;-1.50;99.90;;;;;;4973296;28;19996;-82
2021/01/25 04:58:24;;;;;;;;;;;-1.60;99.90;;;;;;4982599;28;19936;-82
2021/01/25 05:00:50;;;;;;;;;;;-1.60;99.90;;;;;;4993929;28;20260;-82
2021/01/25 05:03:16;;;;;;;;;;;-1.60;99.90;;;;;;4993823;28;19913;-82
2021/01/25 05:05:41;;;;;;;;;;;-1.60;99.90;;;;;;4992467;28;19945;-82
2021/01/25 05:08:07;;;;;;;;;;;-1.60;99.90;;;;;;4974527;28;19910;-82
2021/01/25 05:10:33;;;;;;;;;;;-1.60;99.90;;;;;;4966732;28;19910;-82
2021/01/25 05:12:58;;;;;;;;;;;-1.60;99.90;;;;;;4954709;28;19917;-82
2021/01/25 05:15:28;;;;;;;;;;;-1.70;99.90;;;;;;4953803;29;19906;-82
2021/01/25 05:17:54;;;;;;;;;;;-1.70;99.90;;;;;;4955006;28;20272;-82
2021/01/25 05:20:27;;;;;;;;;;;-1.70;99.90;;;;;;4964387;28;19916;-82
2021/01/25 05:22:53;;;;;;;;;;;-1.70;99.90;;;;;;4976877;28;19941;-82
2021/01/25 05:25:23;;;;;;;;;;;-1.80;99.90;;;;;;4974255;28;20380;-82
2021/01/25 05:27:48;;;;;;;;;;;-1.80;99.90;;;;;;4971335;28;20364;-82
2021/01/25 05:30:14;;;;;;;;;;;-1.80;99.90;;;;;;4974181;28;19913;-82
2021/01/25 05:33:00;;;;;;;;;;;-1.80;99.90;;;;;;4992298;28;19917;-82
2021/01/25 05:35:28;;;;;;;;;;;-1.80;99.90;;;;;;4991428;28;19918;-82
2021/01/25 05:37:58;;;;;;;;;;;-1.80;99.90;;;;;;4992260;28;20290;-82
2021/01/25 05:40:24;;;;;;;;;;;-1.80;99.90;;;;;;4992198;28;19906;-82
2021/01/25 05:42:50;;;;;;;;;;;-1.70;99.90;;;;;;4974157;28;19910;-82
2021/01/25 05:45:16;;;;;;;;;;;-1.70;99.90;;;;;;4988779;28;19913;-82
2021/01/25 05:47:52;;;;;;;;;;;-1.70;99.90;;;;;;4972611;28;19933;-82
2021/01/25 05:50:34;;;;;;;;;;;-1.70;99.90;;;;;;4958789;28;19918;-82
2021/01/25 05:53:00;;;;;;;;;;;-1.70;99.90;;;;;;4954602;28;19907;-82
2021/01/25 05:55:26;;;;;;;;;;;-1.70;99.90;;;;;;4952538;29;19906;-82
2021/01/25 05:57:52;;;;;;;;;;;-1.60;99.90;;;;;;4952737;29;20281;-82
2021/01/25 06:00:19;;;;;;;;;;;-1.60;99.90;;;;;;4967956;28;19910;-82
2021/01/25 06:02:47;;;;;;;;;;;-1.50;99.90;;;;;;4981996;28;19906;-83
2021/01/25 06:05:23;;;;;;;;;;;-1.50;99.90;;;;;;4973812;28;19906;-83
2021/01/25 06:07:49;;;;;;;;;;;-1.50;99.90;;;;;;4976203;28;19906;-82
2021/01/25 06:10:18;;;;;;;;;;;-1.50;99.90;;;;;;5002376;28;20399;-83
2021/01/25 06:12:44;;;;;;;;;;;-1.50;99.90;;;;;;4983274;28;19909;-83
2021/01/25 06:15:20;;;;;;;;;;;-1.50;99.90;;;;;;4997177;28;19906;-82
2021/01/25 06:17:47;;;;;;;;;;;-1.50;99.90;;;;;;4995935;28;19932;-83
2021/01/25 06:20:13;;;;;;;;;;;-1.40;99.90;;;;;;4995050;28;20462;-83
2021/01/25 06:22:39;;;;;;;;;;;-1.40;99.90;;;;;;4991494;28;19961;-83
2021/01/25 06:25:07;;;;;;;;;;;-1.40;99.90;;;;;;4977332;28;19910;-83
2021/01/25 06:27:32;;;;;;;;;;;-1.40;99.90;;;;;;4959306;28;19921;-83
2021/01/25 06:30:00;;;;;;;;;;;-1.30;99.90;;;;;;4984363;28;19910;-83
2021/01/25 06:32:32;;;;;;;;;;;-1.30;99.90;;;;;;4990677;28;19910;-83
2021/01/25 06:35:00;;;;;;;;;;;-1.30;99.90;;;;;;4968488;28;19910;-82
2021/01/25 06:37:28;;;;;;;;;;;-1.30;99.90;;;;;;4955514;28;20357;-82
2021/01/25 06:39:56;;;;;;;;;;;-1.30;99.90;;;;;;4977808;28;19914;-83
2021/01/25 06:42:30;;;;;;;;;;;-1.30;99.90;;;;;;4973431;28;19910;-83
2021/01/25 06:44:55;;;;;;;;;;;-1.30;99.90;;;;;;4953747;28;19914;-83
2021/01/25 06:47:21;;;;;;;;;;;-1.20;99.90;;;;;;4958963;28;20001;-83
2021/01/25 06:49:46;;;;;;;;;;;-1.20;99.90;;;;;;4973337;28;20316;-83
2021/01/25 06:52:13;;;;;;;;;;;-1.20;99.90;;;;;;4973505;28;19910;-83
2021/01/25 06:54:43;;;;;;;;;;;-1.20;99.90;;;;;;4977039;28;19906;-82
2021/01/25 06:57:09;;;;;;;;;;;-1.20;99.90;;;;;;4973489;28;20248;-83
2021/01/25 06:59:36;;;;;;;;;;;-1.20;99.90;;;;;;4972713;28;19922;-82
2021/01/25 07:02:05;;;;;;;;;;;-1.20;99.90;;;;;;4973569;28;20000;-83
2021/01/25 07:04:31;;;;;;;;;;;-1.20;99.90;;;;;;4972889;28;19925;-83
2021/01/25 07:06:57;;;;;;;;;;;-1.20;99.90;;;;;;4973013;28;20394;-82
2021/01/25 07:09:24;;;;;;;;;;;-1.10;99.90;;;;;;4971130;28;20372;-83
2021/01/25 07:11:49;;;;;;;;;;;-1.10;99.90;;;;;;4990393;28;19917;-83
2021/01/25 07:14:15;;;;;;;;;;;-1.10;99.90;;;;;;4975331;28;20360;-83
2021/01/25 07:16:41;;;;;;;;;;;-1.10;99.90;;;;;;4973697;28;19914;-83
2021/01/25 07:19:07;;;;;;;;;;;-1.00;99.90;;;;;;4975396;28;20428;-83
2021/01/25 07:21:32;;;;;;;;;;;-1.00;99.90;;;;;;4970446;28;19914;-83
2021/01/25 07:23:59;;;;;;;;;;;-1.00;99.90;;;;;;4991008;28;20330;-83
2021/01/25 07:26:25;;;;;;;;;;;-1.10;99.90;;;;;;4993502;28;19910;-83
2021/01/25 07:28:50;;;;;;;;;;;-1.00;99.90;;;;;;4994469;28;19906;-84
2021/01/25 07:31:16;;;;;;;;;;;-1.00;99.90;;;;;;4995364;28;19906;-83
2021/01/25 07:33:41;;;;;;;;;;;-1.00;99.90;;;;;;4981344;28;19910;-83
2021/01/25 07:36:07;;;;;;;;;;;-1.00;99.90;;;;;;4971371;28;20368;-83
2021/01/25 07:38:33;;;;;;;;;;;-1.00;99.90;;;;;;4974935;28;19913;-83
2021/01/25 07:40:59;;;;;;;;;;;-1.00;99.90;;;;;;4974002;28;20326;-83
2021/01/25 07:43:29;;;;;;;;;;;-1.00;99.90;;;;;;4975029;28;20371;-83
2021/01/25 07:46:04;;;;;;;;;;;-1.00;99.90;;;;;;4990926;28;20344;-82
2021/01/25 07:48:30;;;;;;;;;;;-1.00;99.90;;;;;;4975403;28;20009;-83
2021/01/25 07:50:59;;;;;;;;;;;-0.90;99.90;;;;;;4973817;28;20398;-83
2021/01/25 07:53:25;;;;;;;;;;;-0.90;99.90;;;;;;4974257;28;19906;-83
2021/01/25 07:55:50;;;;;;;;;;;-0.90;99.90;;;;;;4974456;28;20271;-83
2021/01/25 07:58:16;;;;;;;;;;;-0.90;99.90;;;;;;4975712;28;20344;-83
2021/01/25 08:00:42;;;;;;;;;;;-0.90;99.90;;;;;;4975554;28;19913;-83
2021/01/25 08:03:28;;;;;;;;;;;-0.80;99.90;;;;;;4988811;28;19922;-83
2021/01/25 08:05:59;;;;;;;;;;;-0.80;99.90;;;;;;4973982;28;19906;-82
2021/01/25 08:08:28;;;;;;;;;;;-0.80;99.90;;;;;;4990001;28;19906;-83
2021/01/25 08:10:54;;;;;;;;;;;-0.70;99.90;;;;;;4973843;28;19906;-82
2021/01/25 08:13:40;;;;;;;;;;;-0.80;99.90;;;;;;4974131;28;20368;-82
2021/01/25 08:16:13;;;;;;;;;;;-0.70;99.90;;;;;;4975135;28;19952;-83
2021/01/25 08:18:42;;;;;;;;;;;-0.70;99.90;;;;;;4973965;28;19929;-83
2021/01/25 08:21:11;;;;;;;;;;;-0.70;99.90;;;;;;4973674;28;19917;-83
2021/01/25 08:23:40;;;;;;;;;;;-0.70;99.90;;;;;;4961051;28;19918;-83
2021/01/25 08:26:06;;;;;;;;;;;-0.70;99.90;;;;;;4955567;28;20427;-83
2021/01/25 08:28:40;;;;;;;;;;;-0.70;99.90;;;;;;4952369;28;20046;-83
2021/01/25 08:31:13;;;;;;;;;;;-0.70;99.90;;;;;;4952815;29;19944;-83
2021/01/25 08:33:41;;;;;;;;;;;-0.70;99.90;;;;;;4954275;28;20276;-83
2021/01/25 08:36:07;;;;;;;;;;;-0.70;99.90;;;;;;4955776;28;19985;-83
2021/01/25 08:38:33;;;;;;;;;;;-0.70;99.90;;;;;;4954227;29;19907;-83
2021/01/25 08:41:00;;;;;;;;;;;-0.60;99.90;;;;;;4954454;28;20345;-83
2021/01/25 08:43:28;;;;;;;;;;;-0.60;99.90;;;;;;4954056;28;19921;-84
2021/01/25 08:45:56;;;;;;;;;;;-0.50;99.90;;;;;;4953918;29;19997;-83
2021/01/25 08:48:28;;;;;;;;;;;-0.50;99.90;;;;;;4966964;28;19910;-83
2021/01/25 08:50:53;;;;;;;;;;;-0.50;99.90;;;;;;4973258;28;19912;-83
2021/01/25 08:53:28;;;;;;;;;;;-0.50;99.90;;;;;;4973425;28;20000;-83
2021/01/25 08:55:57;;;;;;;;;;;-0.50;99.90;;;;;;4973625;28;20026;-83
2021/01/25 08:58:30;;;;;;;;;;;-0.50;99.90;;;;;;4973183;28;20291;-83
2021/01/25 09:00:56;;;;;;;;;;;-0.40;99.90;;;;;;4971878;28;19919;-83
2021/01/25 09:03:23;;;;;;;;;;;-0.40;99.90;;;;;;4955874;28;20391;-83
2021/01/25 09:05:53;;;;;;;;;;;-0.40;99.90;;;;;;4954113;29;19906;-84
2021/01/25 09:08:19;;;;;;;;;;;-0.40;99.90;;;;;;4953996;29;20006;-83
2021/01/25 09:10:44;;;;;;;;;;;-0.40;99.90;;;;;;4955359;28;19938;-83
2021/01/25 09:13:10;;;;;;;;;;;-0.30;99.90;;;;;;4953745;28;19929;-83
2021/01/25 09:15:36;;;;;;;;;;;-0.30;99.90;;;;;;4955087;28;19907;-83
2021/01/25 09:18:01;;;;;;;;;;;-0.40;99.90;;;;;;4955188;28;19925;-83
2021/01/25 09:20:27;;;;;;;;;;;-0.30;99.90;;;;;;4969793;28;19914;-83
2021/01/25 09:22:52;;;;;;;;;;;-0.30;99.90;;;;;;4955323;28;19913;-83
2021/01/25 09:25:20;;;;;;;;;;;-0.30;99.90;;;;;;4954080;28;19914;-83
2021/01/25 09:27:45;;;;;;;;;;;-0.40;99.90;;;;;;4959466;28;19958;-84
2021/01/25 09:30:13;;;;;;;;;;;-0.40;99.90;;;;;;4974029;28;19941;-83
2021/01/25 09:32:39;;;;;;;;;;;-0.50;99.90;;;;;;4972749;28;19917;-84
2021/01/25 09:35:05;;;;;;;;;;;-0.50;99.90;;;;;;4974074;28;20267;-83
2021/01/25 09:37:31;;;;;;;;;;;-0.50;99.90;;;;;;4972619;28;20355;-84
2021/01/25 09:39:56;;;;;;;;;;;-0.50;99.90;;;;;;4972830;28;20004;-84
2021/01/25 09:42:22;;;;;;;;;;;-0.60;99.90;;;;;;4976405;28;19906;-83
2021/01/25 09:44:48;;;;;;;;;;;-0.60;99.90;;;;;;4975090;28;19969;-83
2021/01/25 09:47:13;;;;;;;;;;;-0.50;99.90;;;;;;4977739;28;19933;-83
2021/01/25 09:49:39;;;;;;;;;;;-0.50;99.90;;;;;;4977556;28;19906;-84
2021/01/25 09:52:04;;;;;;;;;;;-0.40;99.90;;;;;;4976665;28;19906;-83
2021/01/25 09:54:30;;;;;;;;;;;-0.40;99.90;;;;;;4974473;28;19917;-83
2021/01/25 09:56:56;;;;;;;;;;;-0.40;99.90;;;;;;4996803;28;19924;-83
2021/01/25 09:59:22;;;;;;;;;;;-0.50;99.90;;;;;;4995337;28;20431;-83
2021/01/25 10:01:47;;;;;;;;;;;-0.50;99.90;;;;;;4996510;28;19941;-83
2021/01/25 10:04:13;;;;;;;;;;;-0.40;99.90;;;;;;4989505;28;20312;-84
2021/01/25 10:06:39;;;;;;;;;;;-0.30;99.90;;;;;;4956615;28;19906;-84
2021/01/25 10:09:04;;;;;;;;;;;-0.30;99.90;;;;;;4956644;28;20328;-83
2021/01/25 10:11:30;;;;;;;;;;;-0.30;99.90;;;;;;4958205;28;19911;-83
2021/01/25 10:13:56;;;;;;;;;;;-0.20;99.90;;;;;;4957457;28;20276;-84
2021/01/25 10:16:22;;;;;;;;;;;-0.20;99.90;;;;;;4957679;28;19958;-84
2021/01/25 10:18:49;;;;;;;;;;;-0.10;99.90;;;;;;4957816;28;19969;-84
2021/01/25 10:21:16;;;;;;;;;;;-0.10;99.90;;;;;;4956778;29;19933;-84
2021/01/25 10:23:42;;;;;;;;;;;-0.10;99.90;;;;;;4956468;29;19914;-84
2021/01/25 10:26:08;;;;;;;;;;;-0.10;99.90;;;;;;4957346;28;19993;-84
2021/01/25 10:28:34;;;;;;;;;;;0.00;99.90;;;;;;4957873;28;19953;-83
2021/01/25 10:30:59;;;;;;;;;;;-0.10;99.90;;;;;;4958598;28;19907;-83
2021/01/25 10:33:25;;;;;;;;;;;-0.10;99.90;;;;;;4956362;29;19914;-83
2021/01/25 10:35:50;;;;;;;;;;;-0.10;99.90;;;;;;4956564;29;19907;-84
2021/01/25 10:38:16;;;;;;;;;;;-0.10;99.90;;;;;;4958064;28;20253;-84
2021/01/25 10:40:41;;;;;;;;;;;-0.20;99.90;;;;;;4955860;28;19918;-83
2021/01/25 10:43:07;;;;;;;;;;;-0.20;99.90;;;;;;4991004;28;19944;-84
2021/01/25 10:45:33;;;;;;;;;;;-0.20;99.90;;;;;;4963309;28;19917;-83
2021/01/25 10:47:59;;;;;;;;;;;-0.30;99.90;;;;;;4956590;29;19906;-83
2021/01/25 10:50:24;;;;;;;;;;;-0.30;99.90;;;;;;4955890;29;20017;-83
2021/01/25 10:52:50;;;;;;;;;;;-0.40;99.90;;;;;;4956539;28;19906;-84
2021/01/25 10:55:16;;;;;;;;;;;-0.40;99.90;;;;;;4956301;29;19925;-84
2021/01/25 10:57:42;;;;;;;;;;;-0.40;99.90;;;;;;4955504;29;19925;-83
2021/01/25 11:00:09;;;;;;;;;;;-0.30;99.90;;;;;;4956768;28;19938;-83
2021/01/25 11:02:34;;;;;;;;;;;-0.40;99.90;;;;;;4960877;28;20379;-83
2021/01/25 11:05:03;;;;;;;;;;;-0.30;99.90;;;;;;4957060;29;20005;-83
2021/01/25 11:07:29;;;;;;;;;;;-0.40;99.90;;;;;;4956576;29;19913;-83
2021/01/25 11:09:54;;;;;;;;;;;-0.30;99.90;;;;;;4956223;29;19911;-83
2021/01/25 11:12:20;;;;;;;;;;;-0.30;99.90;;;;;;4956796;29;20320;-84
2021/01/25 11:14:46;;;;;;;;;;;-0.20;99.90;;;;;;4955202;29;19973;-84
2021/01/25 11:17:12;;;;;;;;;;;-0.10;99.90;;;;;;4956443;28;19906;-83
2021/01/25 11:19:38;;;;;;;;;;;-0.20;99.90;;;;;;4954708;29;20360;-84
2021/01/25 11:22:04;;;;;;;;;;;-0.10;99.90;;;;;;4956373;29;19915;-83
2021/01/25 11:24:29;;;;;;;;;;;-0.10;99.90;;;;;;4954467;29;19921;-83
2021/01/25 11:26:57;;;;;;;;;;;-0.10;99.90;;;;;;4955047;29;20361;-83
2021/01/25 11:29:25;;;;;;;;;;;-0.10;99.90;;;;;;4970226;28;20005;-83
2021/01/25 11:31:50;;;;;;;;;;;-0.20;99.90;;;;;;4974381;28;19906;-84
2021/01/25 11:34:16;;;;;;;;;;;-0.20;99.90;;;;;;4975618;28;19952;-83
2021/01/25 11:36:42;;;;;;;;;;;-0.30;99.90;;;;;;4975693;28;19910;-83
2021/01/25 11:39:07;;;;;;;;;;;-0.30;99.90;;;;;;4975642;28;20384;-83
2021/01/25 11:41:33;;;;;;;;;;;-0.30;99.90;;;;;;4972258;28;19917;-84
2021/01/25 11:43:59;;;;;;;;;;;-0.30;99.90;;;;;;4975596;28;19918;-84
2021/01/25 11:46:25;;;;;;;;;;;-0.30;99.90;;;;;;4974059;28;19918;-83
2021/01/25 11:48:50;;;;;;;;;;;-0.40;99.90;;;;;;4975669;28;20303;-84
2021/01/25 11:51:16;;;;;;;;;;;-0.40;99.90;;;;;;4975394;28;20456;-83
2021/01/25 11:53:41;;;;;;;;;;;-0.40;99.90;;;;;;4989786;28;19918;-83
2021/01/25 11:56:07;;;;;;;;;;;-0.40;99.90;;;;;;4975678;28;19916;-83
2021/01/25 11:58:32;;;;;;;;;;;-0.40;99.90;;;;;;4974177;28;20352;-83
2021/01/25 12:00:58;;;;;;;;;;;-0.40;99.90;;;;;;4973667;28;19910;-83
2021/01/25 12:03:23;;;;;;;;;;;-0.30;99.90;;;;;;4972998;28;19965;-83
2021/01/25 12:05:49;;;;;;;;;;;-0.30;99.90;;;;;;4988799;28;19906;-83
2021/01/25 12:08:15;;;;;;;;;;;-0.20;99.90;;;;;;4970959;28;20016;-85
2021/01/25 12:10:43;;;;;;;;;;;-0.30;99.90;;;;;;4972340;28;19940;-84
2021/01/25 12:13:09;;;;;;;;;;;-0.30;99.90;;;;;;4971646;28;19956;-84
2021/01/25 12:15:35;;;;;;;;;;;-0.40;99.90;;;;;;4972898;28;19906;-84
2021/01/25 12:18:00;;;;;;;;;;;-0.30;99.90;;;;;;4974163;28;19906;-84
2021/01/25 12:20:26;;;;;;;;;;;-0.30;99.90;;;;;;4966100;28;19910;-84
2021/01/25 12:22:51;;;;;;;;;;;-0.40;99.90;;;;;;4956511;28;20280;-84
2021/01/25 12:25:17;;;;;;;;;;;-0.40;99.90;;;;;;4955824;28;20282;-84
2021/01/25 12:27:43;;;;;;;;;;;-0.40;99.90;;;;;;4970086;28;19914;-83
2021/01/25 12:30:14;;;;;;;;;;;-0.40;99.90;;;;;;4955232;29;20287;-83
2021/01/25 12:32:39;;;;;;;;;;;-0.40;99.90;;;;;;4962975;28;20004;-83
2021/01/25 12:35:06;;;;;;;;;;;-0.40;99.90;;;;;;4959839;28;19957;-84
2021/01/25 12:37:31;;;;;;;;;;;-0.40;99.90;;;;;;4955229;28;19906;-83
2021/01/25 12:39:57;;;;;;;;;;;-0.40;99.90;;;;;;4953884;28;19911;-83
2021/01/25 12:42:23;;;;;;;;;;;-0.40;99.90;;;;;;4956845;28;19928;-84
2021/01/25 12:44:48;;;;;;;;;;;-0.40;99.90;;;;;;4974785;28;19997;-84
2021/01/25 12:47:14;;;;;;;;;;;-0.50;99.90;;;;;;4974328;28;20352;-84
2021/01/25 12:49:40;;;;;;;;;;;-0.50;99.90;;;;;;4972682;28;19914;-84
2021/01/25 12:52:05;;;;;;;;;;;-0.50;99.90;;;;;;4974311;28;19910;-84
2021/01/25 12:54:32;;;;;;;;;;;-0.50;99.90;;;;;;4973186;28;19937;-84
2021/01/25 12:56:58;;;;;;;;;;;-0.50;99.90;;;;;;4973447;28;20237;-84
2021/01/25 12:59:23;;;;;;;;;;;-0.50;99.90;;;;;;4989270;28;19956;-84
2021/01/25 13:01:49;;;;;;;;;;;-0.50;99.90;;;;;;4974560;28;19906;-84
2021/01/25 13:04:16;;;;;;;;;;;-0.50;99.90;;;;;;4973323;28;19965;-84
2021/01/25 13:06:41;;;;;;;;;;;-0.50;99.90;;;;;;4974626;28;19910;-84
2021/01/25 13:09:07;;;;;;;;;;;-0.50;99.90;;;;;;4956737;28;19915;-84
2021/01/25 13:11:33;;;;;;;;;;;-0.50;99.90;;;;;;4955095;28;19906;-83
2021/01/25 13:13:58;;;;;;;;;;;-0.60;99.90;;;;;;4954120;28;20375;-84
2021/01/25 13:16:24;;;;;;;;;;;-0.60;99.90;;;;;;4961588;28;20288;-84
2021/01/25 13:18:49;;;;;;;;;;;-0.60;99.90;;;;;;4984267;28;19993;-83
2021/01/25 13:21:15;;;;;;;;;;;-0.50;99.90;;;;;;4976536;28;19910;-83
2021/01/25 13:23:41;;;;;;;;;;;-0.60;99.90;;;;;;4975750;28;19918;-83
2021/01/25 13:26:07;;;;;;;;;;;-0.60;99.90;;;;;;4975060;28;19914;-83
2021/01/25 13:28:32;;;;;;;;;;;-0.60;99.90;;;;;;4974790;28;20524;-84
2021/01/25 13:30:58;;;;;;;;;;;-0.60;99.90;;;;;;4976471;28;19917;-83
2021/01/25 13:33:24;;;;;;;;;;;-0.60;99.90;;;;;;4973658;28;19910;-83
2021/01/25 13:35:49;;;;;;;;;;;-0.60;99.90;;;;;;4973494;28;19906;-84
2021/01/25 13:38:15;;;;;;;;;;;-0.50;99.90;;;;;;4975477;28;19941;-84
2021/01/25 13:40:41;;;;;;;;;;;-0.60;99.90;;;;;;4975780;28;20303;-83
2021/01/25 13:43:06;;;;;;;;;;;-0.70;99.90;;;;;;4975828;28;19906;-84
2021/01/25 13:45:32;;;;;;;;;;;-0.60;99.90;;;;;;4975836;28;19945;-83
2021/01/25 13:48:04;;;;;;;;;;;-0.60;99.90;;;;;;4971608;28;19914;-84
2021/01/25 13:50:30;;;;;;;;;;;-0.70;99.90;;;;;;4974191;28;20241;-82
2021/01/25 13:52:56;;;;;;;;;;;-0.70;99.90;;;;;;4975167;28;19917;-83
2021/01/25 13:55:21;;;;;;;;;;;-0.60;99.90;;;;;;4977646;28;20311;-83
2021/01/25 13:57:47;;;;;;;;;;;-0.60;99.90;;;;;;4976314;28;19957;-83
2021/01/25 14:00:14;;;;;;;;;;;-0.60;99.90;;;;;;4976357;28;19906;-83
2021/01/25 14:02:39;;;;;;;;;;;-0.60;99.90;;;;;;4973278;28;19906;-83
2021/01/25 14:05:05;;;;;;;;;;;-0.60;99.90;;;;;;4984031;28;19964;-83
2021/01/25 14:07:31;;;;;;;;;;;-0.60;99.90;;;;;;4979920;28;20383;-83
2021/01/25 14:09:56;;;;;;;;;;;-0.60;99.90;;;;;;4973946;28;19910;-82
2021/01/25 14:12:23;;;;;;;;;;;-0.60;99.90;;;;;;4975959;28;19906;-83
2021/01/25 14:14:48;;;;;;;;;;;-0.60;99.90;;;;;;4977325;28;19906;-83
2021/01/25 14:17:14;;;;;;;;;;;-0.60;99.90;;;;;;4974695;28;20269;-83
2021/01/25 14:19:40;;;;;;;;;;;-0.60;99.90;;;;;;4982760;28;19937;-83
2021/01/25 14:22:06;;;;;;;;;;;-0.70;99.90;;;;;;4984065;28;19913;-83
2021/01/25 14:24:32;;;;;;;;;;;-0.60;99.90;;;;;;4983205;28;19918;-83
2021/01/25 14:26:57;;;;;;;;;;;-0.60;99.90;;;;;;4985456;28;20032;-83